sensor_id;sensor_type;location;lat;lon;timestamp;P1;P2;P0
48531;PMS5003;34927;37.302;-121.982;2023-04-01T00:00:11;0;0;
48531;PMS5003;34927;37.302;-121.982;2023-04-01T00:01:16;3;3;
48531;PMS5003;34927;37.302;-121.982;2023-04-01T00:02:25;4;4;
48531;PMS5003;34927;37.302;-121.982;2023-04-01T00:03:30;3;3;
48531;PMS5003;34927;37.302;-121.982;2023-04-01T00:04:36;3;3;
48531;PMS5003;34927;37.302;-121.982;2023-04-01T00:05:40;3;3;
48531;PMS5003;34927;37.302;-121.982;2023-04-01T00:06:46;3;3;
48531;PMS5003;34927;37.302;-121.982;2023-04-01T00:07:50;2;2;
48531;PMS5003;34927;37.302;-121.982;2023-04-01T00:08:56;2;2;
48531;PMS5003;34927;37.302;-121.982;2023-04-01T00:10:01;2;2;
48531;PMS5003;34927;37.302;-121.982;2023-04-01T00:11:06;1;1;
48531;PMS5003;34927;37.302;-121.982;2023-04-01T00:12:11;1;1;
48531;PMS5003;34927;37.302;-121.982;2023-04-01T00:13:16;1;1;
48531;PMS5003;34927;37.302;-121.982;2023-04-01T00:14:21;2;2;
48531;PMS5003;34927;37.302;-121.982;2023-04-01T00:15:25;2;2;
48531;PMS5003;34927;37.302;-121.982;2023-04-01T00:16:30;2;2;
48531;PMS5003;34927;37.302;-121.982;2023-04-01T00:17:36;2;2;
48531;PMS5003;34927;37.302;-121.982;2023-04-01T00:18:41;2;2;
48531;PMS5003;34927;37.302;-121.982;2023-04-01T00:19:46;2;2;
48531;PMS5003;34927;37.302;-121.982;2023-04-01T00:20:52;2;2;
48531;PMS5003;34927;37.302;-121.982;2023-04-01T00:21:56;2;2;
48531;PMS5003;34927;37.302;-121.982;2023-04-01T00:23:01;1;1;
48531;PMS5003;34927;37.302;-121.982;2023-04-01T00:24:06;1;1;
48531;PMS5003;34927;37.302;-121.982;2023-04-01T00:25:11;1;1;
48531;PMS5003;34927;37.302;-121.982;2023-04-01T00:26:16;2;2;
48531;PMS5003;34927;37.302;-121.982;2023-04-01T00:27:21;2;2;
48531;PMS5003;34927;37.302;-121.982;2023-04-01T00:28:26;2;2;
48531;PMS5003;34927;37.302;-121.982;2023-04-01T00:29:31;2;2;
48531;PMS5003;34927;37.302;-121.982;2023-04-01T00:30:36;2;2;
48531;PMS5003;34927;37.302;-121.982;2023-04-01T00:31:41;2;2;
48531;PMS5003;34927;37.302;-121.982;2023-04-01T00:32:45;2;2;
48531;PMS5003;34927;37.302;-121.982;2023-04-01T00:33:55;2;2;
48531;PMS5003;34927;37.302;-121.982;2023-04-01T00:35:01;2;2;
48531;PMS5003;34927;37.302;-121.982;2023-04-01T00:36:07;2;2;
48531;PMS5003;34927;37.302;-121.982;2023-04-01T00:37:11;2;2;
48531;PMS5003;34927;37.302;-121.982;2023-04-01T00:38:16;2;2;
48531;PMS5003;34927;37.302;-121.982;2023-04-01T00:39:21;2;2;
48531;PMS5003;34927;37.302;-121.982;2023-04-01T00:40:27;2;2;
48531;PMS5003;34927;37.302;-121.982;2023-04-01T00:41:36;2;2;
48531;PMS5003;34927;37.302;-121.982;2023-04-01T00:42:41;2;2;
48531;PMS5003;34927;37.302;-121.982;2023-04-01T00:43:46;2;2;
48531;PMS5003;34927;37.302;-121.982;2023-04-01T00:44:51;2;2;
48531;PMS5003;34927;37.302;-121.982;2023-04-01T00:45:56;2;2;
48531;PMS5003;34927;37.302;-121.982;2023-04-01T00:47:01;4;3;
48531;PMS5003;34927;37.302;-121.982;2023-04-01T00:48:07;4;3;
48531;PMS5003;34927;37.302;-121.982;2023-04-01T00:49:16;4;3;
48531;PMS5003;34927;37.302;-121.982;2023-04-01T00:50:21;4;3;
48531;PMS5003;34927;37.302;-121.982;2023-04-01T00:51:27;4;3;
48531;PMS5003;34927;37.302;-121.982;2023-04-01T00:52:31;4;3;
48531;PMS5003;34927;37.302;-121.982;2023-04-01T00:53:37;3;2;
48531;PMS5003;34927;37.302;-121.982;2023-04-01T00:54:47;4;3;
48531;PMS5003;34927;37.302;-121.982;2023-04-01T00:55:58;4;3;
48531;PMS5003;34927;37.302;-121.982;2023-04-01T00:57:06;4;3;
48531;PMS5003;34927;37.302;-121.982;2023-04-01T00:58:16;4;3;
48531;PMS5003;34927;37.302;-121.982;2023-04-01T01:05:57;2;2;
48531;PMS5003;34927;37.302;-121.982;2023-04-01T01:07:13;3;3;
48531;PMS5003;34927;37.302;-121.982;2023-04-01T01:08:33;3;3;
48531;PMS5003;34927;37.302;-121.982;2023-04-01T01:09:52;2;2;
48531;PMS5003;34927;37.302;-121.982;2023-04-01T01:11:06;2;2;
48531;PMS5003;34927;37.302;-121.982;2023-04-01T01:12:11;1;1;
48531;PMS5003;34927;37.302;-121.982;2023-04-01T01:13:22;1;1;
48531;PMS5003;34927;37.302;-121.982;2023-04-01T01:14:35;1;1;
48531;PMS5003;34927;37.302;-121.982;2023-04-01T01:15:46;1;1;
48531;PMS5003;34927;37.302;-121.982;2023-04-01T01:16:51;1;1;
48531;PMS5003;34927;37.302;-121.982;2023-04-01T01:18:03;1;1;
48531;PMS5003;34927;37.302;-121.982;2023-04-01T01:19:14;1;1;
48531;PMS5003;34927;37.302;-121.982;2023-04-01T01:20:48;1;1;
48531;PMS5003;34927;37.302;-121.982;2023-04-01T01:22:19;2;2;
48531;PMS5003;34927;37.302;-121.982;2023-04-01T01:24:51;1;1;
48531;PMS5003;34927;37.302;-121.982;2023-04-01T01:26:10;2;2;
48531;PMS5003;34927;37.302;-121.982;2023-04-01T01:27:31;1;1;
48531;PMS5003;34927;37.302;-121.982;2023-04-01T01:28:37;1;1;
48531;PMS5003;34927;37.302;-121.982;2023-04-01T01:29:59;1;1;
48531;PMS5003;34927;37.302;-121.982;2023-04-01T01:31:16;1;1;
48531;PMS5003;34927;37.302;-121.982;2023-04-01T01:32:30;1;1;
48531;PMS5003;34927;37.302;-121.982;2023-04-01T01:33:49;1;1;
48531;PMS5003;34927;37.302;-121.982;2023-04-01T01:35:11;1;1;
48531;PMS5003;34927;37.302;-121.982;2023-04-01T01:36:21;1;1;
48531;PMS5003;34927;37.302;-121.982;2023-04-01T01:37:31;1;1;
48531;PMS5003;34927;37.302;-121.982;2023-04-01T01:38:36;1;1;
48531;PMS5003;34927;37.302;-121.982;2023-04-01T01:39:41;1;1;
48531;PMS5003;34927;37.302;-121.982;2023-04-01T01:40:51;1;1;
48531;PMS5003;34927;37.302;-121.982;2023-04-01T01:42:02;1;1;
48531;PMS5003;34927;37.302;-121.982;2023-04-01T01:43:12;1;1;
48531;PMS5003;34927;37.302;-121.982;2023-04-01T01:44:21;1;1;
48531;PMS5003;34927;37.302;-121.982;2023-04-01T01:45:26;1;1;
48531;PMS5003;34927;37.302;-121.982;2023-04-01T01:46:31;1;1;
48531;PMS5003;34927;37.302;-121.982;2023-04-01T01:47:36;1;1;
48531;PMS5003;34927;37.302;-121.982;2023-04-01T01:48:41;1;1;
48531;PMS5003;34927;37.302;-121.982;2023-04-01T01:49:46;1;1;
48531;PMS5003;34927;37.302;-121.982;2023-04-01T01:50:51;1;1;
48531;PMS5003;34927;37.302;-121.982;2023-04-01T01:51:56;1;1;
48531;PMS5003;34927;37.302;-121.982;2023-04-01T01:53:02;1;1;
48531;PMS5003;34927;37.302;-121.982;2023-04-01T01:54:12;1;1;
48531;PMS5003;34927;37.302;-121.982;2023-04-01T01:55:24;1;1;
48531;PMS5003;34927;37.302;-121.982;2023-04-01T01:56:30;1;1;
48531;PMS5003;34927;37.302;-121.982;2023-04-01T01:57:36;1;1;
48531;PMS5003;34927;37.302;-121.982;2023-04-01T01:58:41;1;1;
48531;PMS5003;34927;37.302;-121.982;2023-04-01T01:59:46;1;1;
48531;PMS5003;34927;37.302;-121.982;2023-04-01T02:00:52;0;0;
48531;PMS5003;34927;37.302;-121.982;2023-04-01T02:02:01;0;0;
48531;PMS5003;34927;37.302;-121.982;2023-04-01T02:03:06;0;0;
48531;PMS5003;34927;37.302;-121.982;2023-04-01T02:04:11;0;0;
48531;PMS5003;34927;37.302;-121.982;2023-04-01T02:05:21;0;0;
48531;PMS5003;34927;37.302;-121.982;2023-04-01T02:06:28;0;0;
48531;PMS5003;34927;37.302;-121.982;2023-04-01T02:07:36;2;2;
48531;PMS5003;34927;37.302;-121.982;2023-04-01T02:08:42;2;2;
48531;PMS5003;34927;37.302;-121.982;2023-04-01T02:09:51;3;3;
48531;PMS5003;34927;37.302;-121.982;2023-04-01T02:10:58;2;2;
48531;PMS5003;34927;37.302;-121.982;2023-04-01T02:12:06;2;2;
48531;PMS5003;34927;37.302;-121.982;2023-04-01T02:13:16;2;2;
48531;PMS5003;34927;37.302;-121.982;2023-04-01T02:14:27;2;2;
48531;PMS5003;34927;37.302;-121.982;2023-04-01T02:15:37;2;2;
48531;PMS5003;34927;37.302;-121.982;2023-04-01T02:16:47;2;2;
48531;PMS5003;34927;37.302;-121.982;2023-04-01T02:17:55;2;2;
48531;PMS5003;34927;37.302;-121.982;2023-04-01T02:19:00;2;2;
48531;PMS5003;34927;37.302;-121.982;2023-04-01T02:20:06;2;2;
48531;PMS5003;34927;37.302;-121.982;2023-04-01T02:21:15;2;2;
48531;PMS5003;34927;37.302;-121.982;2023-04-01T02:22:21;1;1;
48531;PMS5003;34927;37.302;-121.982;2023-04-01T02:23:31;1;1;
48531;PMS5003;34927;37.302;-121.982;2023-04-01T02:24:36;1;1;
48531;PMS5003;34927;37.302;-121.982;2023-04-01T02:25:40;2;2;
48531;PMS5003;34927;37.302;-121.982;2023-04-01T02:26:45;2;2;
48531;PMS5003;34927;37.302;-121.982;2023-04-01T02:27:51;2;2;
48531;PMS5003;34927;37.302;-121.982;2023-04-01T02:28:57;2;2;
48531;PMS5003;34927;37.302;-121.982;2023-04-01T02:30:06;2;2;
48531;PMS5003;34927;37.302;-121.982;2023-04-01T02:31:10;2;2;
48531;PMS5003;34927;37.302;-121.982;2023-04-01T02:32:16;2;2;
48531;PMS5003;34927;37.302;-121.982;2023-04-01T02:33:21;2;2;
48531;PMS5003;34927;37.302;-121.982;2023-04-01T02:34:26;2;2;
48531;PMS5003;34927;37.302;-121.982;2023-04-01T02:35:31;2;2;
48531;PMS5003;34927;37.302;-121.982;2023-04-01T02:36:36;2;2;
48531;PMS5003;34927;37.302;-121.982;2023-04-01T02:37:40;3;2;
48531;PMS5003;34927;37.302;-121.982;2023-04-01T02:38:46;3;2;
48531;PMS5003;34927;37.302;-121.982;2023-04-01T02:39:51;3;2;
48531;PMS5003;34927;37.302;-121.982;2023-04-01T02:40:57;3;2;
48531;PMS5003;34927;37.302;-121.982;2023-04-01T02:42:01;2;1;
48531;PMS5003;34927;37.302;-121.982;2023-04-01T02:43:06;2;1;
48531;PMS5003;34927;37.302;-121.982;2023-04-01T02:44:12;2;1;
48531;PMS5003;34927;37.302;-121.982;2023-04-01T02:45:16;2;1;
48531;PMS5003;34927;37.302;-121.982;2023-04-01T02:46:21;2;1;
48531;PMS5003;34927;37.302;-121.982;2023-04-01T02:47:26;2;1;
48531;PMS5003;34927;37.302;-121.982;2023-04-01T02:48:31;2;1;
48531;PMS5003;34927;37.302;-121.982;2023-04-01T02:49:35;2;1;
48531;PMS5003;34927;37.302;-121.982;2023-04-01T02:50:40;2;1;
48531;PMS5003;34927;37.302;-121.982;2023-04-01T02:51:45;4;2;
48531;PMS5003;34927;37.302;-121.982;2023-04-01T02:52:51;3;2;
48531;PMS5003;34927;37.302;-121.982;2023-04-01T02:53:56;3;2;
48531;PMS5003;34927;37.302;-121.982;2023-04-01T02:55:00;3;2;
48531;PMS5003;34927;37.302;-121.982;2023-04-01T02:56:05;3;2;
48531;PMS5003;34927;37.302;-121.982;2023-04-01T02:57:11;3;2;
48531;PMS5003;34927;37.302;-121.982;2023-04-01T02:58:16;3;2;
48531;PMS5003;34927;37.302;-121.982;2023-04-01T02:59:21;3;2;
48531;PMS5003;34927;37.302;-121.982;2023-04-01T03:00:26;3;2;
48531;PMS5003;34927;37.302;-121.982;2023-04-01T03:01:31;1;1;
48531;PMS5003;34927;37.302;-121.982;2023-04-01T03:02:35;1;1;
48531;PMS5003;34927;37.302;-121.982;2023-04-01T03:03:41;1;1;
48531;PMS5003;34927;37.302;-121.982;2023-04-01T03:04:46;2;2;
48531;PMS5003;34927;37.302;-121.982;2023-04-01T03:05:51;0;0;
48531;PMS5003;34927;37.302;-121.982;2023-04-01T03:06:56;0;0;
48531;PMS5003;34927;37.302;-121.982;2023-04-01T03:08:00;1;1;
48531;PMS5003;34927;37.302;-121.982;2023-04-01T03:09:06;1;1;
48531;PMS5003;34927;37.302;-121.982;2023-04-01T03:10:11;2;2;
48531;PMS5003;34927;37.302;-121.982;2023-04-01T03:11:15;2;2;
48531;PMS5003;34927;37.302;-121.982;2023-04-01T03:12:21;2;2;
48531;PMS5003;34927;37.302;-121.982;2023-04-01T03:13:26;2;2;
48531;PMS5003;34927;37.302;-121.982;2023-04-01T03:14:31;2;2;
48531;PMS5003;34927;37.302;-121.982;2023-04-01T03:15:36;2;2;
48531;PMS5003;34927;37.302;-121.982;2023-04-01T03:16:41;2;2;
48531;PMS5003;34927;37.302;-121.982;2023-04-01T03:17:46;2;2;
48531;PMS5003;34927;37.302;-121.982;2023-04-01T03:18:51;2;2;
48531;PMS5003;34927;37.302;-121.982;2023-04-01T03:19:56;2;2;
48531;PMS5003;34927;37.302;-121.982;2023-04-01T03:22:16;1;1;
48531;PMS5003;34927;37.302;-121.982;2023-04-01T03:23:21;1;1;
48531;PMS5003;34927;37.302;-121.982;2023-04-01T03:24:26;1;1;
48531;PMS5003;34927;37.302;-121.982;2023-04-01T03:25:36;1;1;
48531;PMS5003;34927;37.302;-121.982;2023-04-01T03:26:41;1;1;
48531;PMS5003;34927;37.302;-121.982;2023-04-01T03:27:46;1;1;
48531;PMS5003;34927;37.302;-121.982;2023-04-01T03:28:51;1;1;
48531;PMS5003;34927;37.302;-121.982;2023-04-01T03:29:56;1;1;
48531;PMS5003;34927;37.302;-121.982;2023-04-01T03:31:01;1;1;
48531;PMS5003;34927;37.302;-121.982;2023-04-01T03:32:06;1;1;
48531;PMS5003;34927;37.302;-121.982;2023-04-01T03:33:11;1;1;
48531;PMS5003;34927;37.302;-121.982;2023-04-01T03:34:16;1;1;
48531;PMS5003;34927;37.302;-121.982;2023-04-01T03:35:21;1;1;
48531;PMS5003;34927;37.302;-121.982;2023-04-01T03:36:26;1;1;
48531;PMS5003;34927;37.302;-121.982;2023-04-01T03:37:30;1;1;
48531;PMS5003;34927;37.302;-121.982;2023-04-01T03:38:35;1;1;
48531;PMS5003;34927;37.302;-121.982;2023-04-01T03:39:40;1;1;
48531;PMS5003;34927;37.302;-121.982;2023-04-01T03:40:46;1;1;
48531;PMS5003;34927;37.302;-121.982;2023-04-01T03:41:51;1;1;
48531;PMS5003;34927;37.302;-121.982;2023-04-01T03:42:56;1;1;
48531;PMS5003;34927;37.302;-121.982;2023-04-01T03:44:01;1;1;
48531;PMS5003;34927;37.302;-121.982;2023-04-01T03:45:06;1;1;
48531;PMS5003;34927;37.302;-121.982;2023-04-01T03:46:12;1;1;
48531;PMS5003;34927;37.302;-121.982;2023-04-01T03:47:21;1;1;
48531;PMS5003;34927;37.302;-121.982;2023-04-01T03:48:26;1;1;
48531;PMS5003;34927;37.302;-121.982;2023-04-01T03:49:31;1;1;
48531;PMS5003;34927;37.302;-121.982;2023-04-01T03:50:36;1;1;
48531;PMS5003;34927;37.302;-121.982;2023-04-01T03:51:42;1;1;
48531;PMS5003;34927;37.302;-121.982;2023-04-01T03:52:46;1;1;
48531;PMS5003;34927;37.302;-121.982;2023-04-01T03:53:51;1;1;
48531;PMS5003;34927;37.302;-121.982;2023-04-01T03:54:55;1;1;
48531;PMS5003;34927;37.302;-121.982;2023-04-01T03:56:03;1;1;
48531;PMS5003;34927;37.302;-121.982;2023-04-01T03:57:06;2;2;
48531;PMS5003;34927;37.302;-121.982;2023-04-01T03:58:10;2;2;
48531;PMS5003;34927;37.302;-121.982;2023-04-01T03:59:15;2;2;
48531;PMS5003;34927;37.302;-121.982;2023-04-01T04:00:21;0;0;
48531;PMS5003;34927;37.302;-121.982;2023-04-01T04:01:26;0;0;
48531;PMS5003;34927;37.302;-121.982;2023-04-01T04:02:31;1;1;
48531;PMS5003;34927;37.302;-121.982;2023-04-01T04:03:36;1;1;
48531;PMS5003;34927;37.302;-121.982;2023-04-01T04:04:41;1;1;
48531;PMS5003;34927;37.302;-121.982;2023-04-01T04:05:47;0;0;
48531;PMS5003;34927;37.302;-121.982;2023-04-01T04:06:51;2;2;
48531;PMS5003;34927;37.302;-121.982;2023-04-01T04:07:55;2;2;
48531;PMS5003;34927;37.302;-121.982;2023-04-01T04:09:00;1;1;
48531;PMS5003;34927;37.302;-121.982;2023-04-01T04:10:06;1;1;
48531;PMS5003;34927;37.302;-121.982;2023-04-01T04:11:10;1;1;
48531;PMS5003;34927;37.302;-121.982;2023-04-01T04:12:16;1;1;
48531;PMS5003;34927;37.302;-121.982;2023-04-01T04:13:21;1;1;
48531;PMS5003;34927;37.302;-121.982;2023-04-01T04:14:26;1;1;
48531;PMS5003;34927;37.302;-121.982;2023-04-01T04:15:31;1;1;
48531;PMS5003;34927;37.302;-121.982;2023-04-01T04:16:36;1;1;
48531;PMS5003;34927;37.302;-121.982;2023-04-01T04:17:40;1;1;
48531;PMS5003;34927;37.302;-121.982;2023-04-01T04:18:45;1;1;
48531;PMS5003;34927;37.302;-121.982;2023-04-01T04:19:51;1;1;
48531;PMS5003;34927;37.302;-121.982;2023-04-01T04:20:56;1;1;
48531;PMS5003;34927;37.302;-121.982;2023-04-01T04:22:00;1;1;
48531;PMS5003;34927;37.302;-121.982;2023-04-01T04:23:06;1;1;
48531;PMS5003;34927;37.302;-121.982;2023-04-01T04:24:11;1;1;
48531;PMS5003;34927;37.302;-121.982;2023-04-01T04:25:15;1;1;
48531;PMS5003;34927;37.302;-121.982;2023-04-01T04:26:20;1;1;
48531;PMS5003;34927;37.302;-121.982;2023-04-01T04:27:26;1;1;
48531;PMS5003;34927;37.302;-121.982;2023-04-01T04:28:31;1;1;
48531;PMS5003;34927;37.302;-121.982;2023-04-01T04:29:37;1;1;
48531;PMS5003;34927;37.302;-121.982;2023-04-01T04:30:41;1;1;
48531;PMS5003;34927;37.302;-121.982;2023-04-01T04:31:46;1;1;
48531;PMS5003;34927;37.302;-121.982;2023-04-01T04:32:51;1;1;
48531;PMS5003;34927;37.302;-121.982;2023-04-01T04:33:56;1;1;
48531;PMS5003;34927;37.302;-121.982;2023-04-01T04:35:00;1;1;
48531;PMS5003;34927;37.302;-121.982;2023-04-01T04:36:06;1;1;
48531;PMS5003;34927;37.302;-121.982;2023-04-01T04:37:11;2;2;
48531;PMS5003;34927;37.302;-121.982;2023-04-01T04:38:16;2;2;
48531;PMS5003;34927;37.302;-121.982;2023-04-01T04:39:21;2;2;
48531;PMS5003;34927;37.302;-121.982;2023-04-01T04:40:26;1;1;
48531;PMS5003;34927;37.302;-121.982;2023-04-01T04:41:31;2;2;
48531;PMS5003;34927;37.302;-121.982;2023-04-01T04:42:36;2;2;
48531;PMS5003;34927;37.302;-121.982;2023-04-01T04:43:41;2;2;
48531;PMS5003;34927;37.302;-121.982;2023-04-01T04:44:51;2;2;
48531;PMS5003;34927;37.302;-121.982;2023-04-01T04:45:55;2;2;
48531;PMS5003;34927;37.302;-121.982;2023-04-01T04:47:01;2;2;
48531;PMS5003;34927;37.302;-121.982;2023-04-01T04:48:12;3;3;
48531;PMS5003;34927;37.302;-121.982;2023-04-01T04:49:16;3;3;
48531;PMS5003;34927;37.302;-121.982;2023-04-01T04:50:21;2;2;
48531;PMS5003;34927;37.302;-121.982;2023-04-01T04:51:26;3;3;
48531;PMS5003;34927;37.302;-121.982;2023-04-01T04:52:31;3;3;
48531;PMS5003;34927;37.302;-121.982;2023-04-01T04:53:36;2;2;
48531;PMS5003;34927;37.302;-121.982;2023-04-01T04:54:40;2;2;
48531;PMS5003;34927;37.302;-121.982;2023-04-01T04:55:47;2;2;
48531;PMS5003;34927;37.302;-121.982;2023-04-01T04:56:51;2;2;
48531;PMS5003;34927;37.302;-121.982;2023-04-01T04:57:56;2;2;
48531;PMS5003;34927;37.302;-121.982;2023-04-01T04:59:01;2;2;
48531;PMS5003;34927;37.302;-121.982;2023-04-01T05:00:07;2;2;
48531;PMS5003;34927;37.302;-121.982;2023-04-01T05:01:11;27;27;
48531;PMS5003;34927;37.302;-121.982;2023-04-01T05:02:15;21;21;
48531;PMS5003;34927;37.302;-121.982;2023-04-01T05:03:21;23;23;
48531;PMS5003;34927;37.302;-121.982;2023-04-01T05:04:26;22;22;
48531;PMS5003;34927;37.302;-121.982;2023-04-01T05:05:31;21;21;
48531;PMS5003;34927;37.302;-121.982;2023-04-01T05:06:36;21;21;
48531;PMS5003;34927;37.302;-121.982;2023-04-01T05:07:40;23;23;
48531;PMS5003;34927;37.302;-121.982;2023-04-01T05:08:46;22;22;
48531;PMS5003;34927;37.302;-121.982;2023-04-01T05:09:51;23;23;
48531;PMS5003;34927;37.302;-121.982;2023-04-01T05:10:56;24;24;
48531;PMS5003;34927;37.302;-121.982;2023-04-01T05:12:01;25;25;
48531;PMS5003;34927;37.302;-121.982;2023-04-01T05:13:06;26;26;
48531;PMS5003;34927;37.302;-121.982;2023-04-01T05:14:12;26;26;
48531;PMS5003;34927;37.302;-121.982;2023-04-01T05:15:16;27;26;
48531;PMS5003;34927;37.302;-121.982;2023-04-01T05:16:21;27;27;
48531;PMS5003;34927;37.302;-121.982;2023-04-01T05:17:25;27;27;
48531;PMS5003;34927;37.302;-121.982;2023-04-01T05:18:30;27;26;
48531;PMS5003;34927;37.302;-121.982;2023-04-01T05:19:36;27;26;
48531;PMS5003;34927;37.302;-121.982;2023-04-01T05:20:45;27;27;
48531;PMS5003;34927;37.302;-121.982;2023-04-01T05:21:51;27;27;
48531;PMS5003;34927;37.302;-121.982;2023-04-01T05:22:56;27;27;
48531;PMS5003;34927;37.302;-121.982;2023-04-01T05:24:01;28;27;
48531;PMS5003;34927;37.302;-121.982;2023-04-01T05:25:06;28;27;
48531;PMS5003;34927;37.302;-121.982;2023-04-01T05:26:11;27;26;
48531;PMS5003;34927;37.302;-121.982;2023-04-01T05:27:16;24;24;
48531;PMS5003;34927;37.302;-121.982;2023-04-01T05:28:21;24;24;
48531;PMS5003;34927;37.302;-121.982;2023-04-01T05:29:26;25;24;
48531;PMS5003;34927;37.302;-121.982;2023-04-01T05:30:31;24;22;
48531;PMS5003;34927;37.302;-121.982;2023-04-01T05:31:36;24;22;
48531;PMS5003;34927;37.302;-121.982;2023-04-01T05:32:40;26;24;
48531;PMS5003;34927;37.302;-121.982;2023-04-01T05:33:46;27;25;
48531;PMS5003;34927;37.302;-121.982;2023-04-01T05:34:51;26;24;
48531;PMS5003;34927;37.302;-121.982;2023-04-01T05:35:56;25;23;
48531;PMS5003;34927;37.302;-121.982;2023-04-01T05:37:06;25;23;
48531;PMS5003;34927;37.302;-121.982;2023-04-01T05:38:11;25;23;
48531;PMS5003;34927;37.302;-121.982;2023-04-01T05:39:16;24;22;
48531;PMS5003;34927;37.302;-121.982;2023-04-01T05:40:20;24;21;
48531;PMS5003;34927;37.302;-121.982;2023-04-01T05:41:26;24;21;
48531;PMS5003;34927;37.302;-121.982;2023-04-01T05:42:31;24;22;
48531;PMS5003;34927;37.302;-121.982;2023-04-01T05:43:36;24;22;
48531;PMS5003;34927;37.302;-121.982;2023-04-01T05:44:40;24;22;
48531;PMS5003;34927;37.302;-121.982;2023-04-01T05:45:46;22;21;
48531;PMS5003;34927;37.302;-121.982;2023-04-01T05:46:51;23;23;
48531;PMS5003;34927;37.302;-121.982;2023-04-01T05:48:01;22;22;
48531;PMS5003;34927;37.302;-121.982;2023-04-01T05:49:06;23;23;
48531;PMS5003;34927;37.302;-121.982;2023-04-01T05:50:11;22;22;
48531;PMS5003;34927;37.302;-121.982;2023-04-01T05:51:16;22;22;
48531;PMS5003;34927;37.302;-121.982;2023-04-01T05:52:21;22;22;
48531;PMS5003;34927;37.302;-121.982;2023-04-01T05:53:26;22;22;
48531;PMS5003;34927;37.302;-121.982;2023-04-01T05:54:31;22;22;
48531;PMS5003;34927;37.302;-121.982;2023-04-01T05:55:36;22;22;
48531;PMS5003;34927;37.302;-121.982;2023-04-01T05:56:41;23;22;
48531;PMS5003;34927;37.302;-121.982;2023-04-01T05:57:46;24;23;
48531;PMS5003;34927;37.302;-121.982;2023-04-01T05:58:51;25;24;
48531;PMS5003;34927;37.302;-121.982;2023-04-01T05:59:56;25;24;
48531;PMS5003;34927;37.302;-121.982;2023-04-01T06:01:02;52;52;
48531;PMS5003;34927;37.302;-121.982;2023-04-01T06:02:06;70;63;
48531;PMS5003;34927;37.302;-121.982;2023-04-01T06:03:11;68;63;
48531;PMS5003;34927;37.302;-121.982;2023-04-01T06:04:16;69;62;
48531;PMS5003;34927;37.302;-121.982;2023-04-01T06:05:22;66;60;
48531;PMS5003;34927;37.302;-121.982;2023-04-01T06:06:26;67;61;
48531;PMS5003;34927;37.302;-121.982;2023-04-01T06:07:31;68;61;
48531;PMS5003;34927;37.302;-121.982;2023-04-01T06:08:36;64;59;
48531;PMS5003;34927;37.302;-121.982;2023-04-01T06:09:41;61;57;
48531;PMS5003;34927;37.302;-121.982;2023-04-01T06:10:51;62;57;
48531;PMS5003;34927;37.302;-121.982;2023-04-01T06:12:17;66;60;
48531;PMS5003;34927;37.302;-121.982;2023-04-01T06:13:35;68;60;
48531;PMS5003;34927;37.302;-121.982;2023-04-01T06:14:52;67;60;
48531;PMS5003;34927;37.302;-121.982;2023-04-01T06:16:07;67;60;
48531;PMS5003;34927;37.302;-121.982;2023-04-01T06:17:19;70;62;
48531;PMS5003;34927;37.302;-121.982;2023-04-01T06:18:39;69;62;
48531;PMS5003;34927;37.302;-121.982;2023-04-01T06:19:57;68;60;
48531;PMS5003;34927;37.302;-121.982;2023-04-01T06:21:09;67;62;
48531;PMS5003;34927;37.302;-121.982;2023-04-01T06:22:29;72;64;
48531;PMS5003;34927;37.302;-121.982;2023-04-01T06:23:48;71;63;
48531;PMS5003;34927;37.302;-121.982;2023-04-01T06:25:10;72;65;
48531;PMS5003;34927;37.302;-121.982;2023-04-01T06:26:28;72;65;
48531;PMS5003;34927;37.302;-121.982;2023-04-01T06:27:47;74;66;
48531;PMS5003;34927;37.302;-121.982;2023-04-01T06:29:14;73;65;
48531;PMS5003;34927;37.302;-121.982;2023-04-01T06:30:33;69;62;
48531;PMS5003;34927;37.302;-121.982;2023-04-01T06:31:50;70;61;
48531;PMS5003;34927;37.302;-121.982;2023-04-01T06:33:17;71;64;
48531;PMS5003;34927;37.302;-121.982;2023-04-01T06:34:39;68;61;
48531;PMS5003;34927;37.302;-121.982;2023-04-01T06:36:06;67;61;
48531;PMS5003;34927;37.302;-121.982;2023-04-01T06:37:25;68;61;
48531;PMS5003;34927;37.302;-121.982;2023-04-01T06:38:49;68;61;
48531;PMS5003;34927;37.302;-121.982;2023-04-01T06:40:11;70;63;
48531;PMS5003;34927;37.302;-121.982;2023-04-01T06:41:43;73;65;
48531;PMS5003;34927;37.302;-121.982;2023-04-01T06:43:04;73;64;
48531;PMS5003;34927;37.302;-121.982;2023-04-01T06:44:16;74;65;
48531;PMS5003;34927;37.302;-121.982;2023-04-01T06:45:28;71;62;
48531;PMS5003;34927;37.302;-121.982;2023-04-01T06:46:42;71;63;
48531;PMS5003;34927;37.302;-121.982;2023-04-01T06:47:50;71;63;
48531;PMS5003;34927;37.302;-121.982;2023-04-01T06:49:12;71;63;
48531;PMS5003;34927;37.302;-121.982;2023-04-01T06:50:32;71;63;
48531;PMS5003;34927;37.302;-121.982;2023-04-01T06:51:47;72;64;
48531;PMS5003;34927;37.302;-121.982;2023-04-01T06:53:02;70;62;
48531;PMS5003;34927;37.302;-121.982;2023-04-01T06:54:11;72;63;
48531;PMS5003;34927;37.302;-121.982;2023-04-01T06:55:24;74;65;
48531;PMS5003;34927;37.302;-121.982;2023-04-01T06:56:31;78;65;
48531;PMS5003;34927;37.302;-121.982;2023-04-01T06:57:38;79;65;
48531;PMS5003;34927;37.302;-121.982;2023-04-01T06:58:46;75;63;
48531;PMS5003;34927;37.302;-121.982;2023-04-01T06:59:56;69;60;
48531;PMS5003;34927;37.302;-121.982;2023-04-01T07:01:02;23;7;
48531;PMS5003;34927;37.302;-121.982;2023-04-01T07:02:16;23;16;
48531;PMS5003;34927;37.302;-121.982;2023-04-01T07:03:29;22;17;
48531;PMS5003;34927;37.302;-121.982;2023-04-01T07:04:37;20;16;
48531;PMS5003;34927;37.302;-121.982;2023-04-01T07:05:46;19;15;
48531;PMS5003;34927;37.302;-121.982;2023-04-01T07:06:52;16;15;
48531;PMS5003;34927;37.302;-121.982;2023-04-01T07:08:02;14;13;
48531;PMS5003;34927;37.302;-121.982;2023-04-01T07:09:11;15;14;
48531;PMS5003;34927;37.302;-121.982;2023-04-01T07:10:23;13;13;
48531;PMS5003;34927;37.302;-121.982;2023-04-01T07:11:37;13;13;
48531;PMS5003;34927;37.302;-121.982;2023-04-01T07:12:43;13;13;
48531;PMS5003;34927;37.302;-121.982;2023-04-01T07:13:52;12;12;
48531;PMS5003;34927;37.302;-121.982;2023-04-01T07:14:56;12;12;
48531;PMS5003;34927;37.302;-121.982;2023-04-01T07:16:08;12;12;
48531;PMS5003;34927;37.302;-121.982;2023-04-01T07:17:17;12;12;
48531;PMS5003;34927;37.302;-121.982;2023-04-01T07:18:29;12;12;
48531;PMS5003;34927;37.302;-121.982;2023-04-01T07:19:39;12;12;
48531;PMS5003;34927;37.302;-121.982;2023-04-01T07:20:45;12;12;
48531;PMS5003;34927;37.302;-121.982;2023-04-01T07:21:52;12;12;
48531;PMS5003;34927;37.302;-121.982;2023-04-01T07:23:02;11;11;
48531;PMS5003;34927;37.302;-121.982;2023-04-01T07:24:12;11;11;
48531;PMS5003;34927;37.302;-121.982;2023-04-01T07:25:27;12;11;